Latest Weather Observations for Thursday Island

IDQ60801

Issued at 6:02 pm EST Monday 25 September 2017 (issued every 30 minutes, with the page automatically refreshed every 10 minutes)

About weather observations | Map of weather stations | Latest weather observations for QLD | Other Formats
Station Details ID: 200892 Name: TORRES STRAIT NTC AWS Lat: -10.59 Lon: 142.22 Height: 3.0 m
Data from the previous 72 hours. | See also: Recent months for locations in Queensland
Date/Time
EST
Temp
°C
App
Temp
°C
Dew
Point
°C
Rel
Hum
%
Delta-T
°C
Wind Press
QNH
hPa
Press
MSL
hPa
Rain since
9am
mm
Dir  Spd
km/h
Gust
km/h
Spd
kts
Gust
kts
25/06:00pm 27.1 - - - - ESE 28 35 15 19 1009.5 1009.5 -
25/05:30pm 27.3 - - - - SE 30 43 16 23 1009.3 1009.3 -
25/05:00pm 27.1 - - - - ESE 37 44 20 24 1009.2 1009.2 -
25/04:30pm 27.4 - - - - ESE 32 41 17 22 1009.4 1009.4 -
25/04:00pm 27.5 - - - - ESE 32 43 17 23 1009.3 1009.3 -
25/03:30pm 27.3 - - - - ESE 33 44 18 24 1009.3 1009.3 -
25/03:00pm 27.6 - - - - ESE 35 44 19 24 1009.5 1009.5 -
25/02:30pm 27.4 - - - - ESE 33 43 18 23 1009.8 1009.8 -
25/02:00pm 27.4 - - - - ESE 35 46 19 25 1010.2 1010.2 -
25/01:30pm 27.4 - - - - ESE 32 43 17 23 1010.4 1010.4 -
25/01:00pm 27.4 - - - - ESE 33 46 18 25 1010.8 1010.8 -
25/12:30pm 27.3 - - - - ESE 33 46 18 25 1011.3 1011.3 -
25/12:00pm 27.2 - - - - ESE 35 43 19 23 1011.5 1011.5 -
25/11:30am 27.4 - - - - ESE 32 39 17 21 1011.7 1011.7 -
25/11:00am 27.1 - - - - ESE 33 46 18 25 1012.0 1012.0 -
25/10:30am 27.0 - - - - ESE 32 41 17 22 1012.1 1012.1 -
25/10:00am 26.8 - - - - ESE 30 41 16 22 1012.3 1012.3 -
25/09:30am 26.6 - - - - ESE 30 39 16 21 1012.5 1012.5 -
25/09:00am 26.4 - - - - ESE 26 39 14 21 1012.5 1012.5 -
25/08:30am 26.2 - - - - ESE 30 39 16 21 1012.3 1012.3 -
25/08:00am 25.9 - - - - SE 24 33 13 18 1012.0 1012.0 -
25/07:30am 25.8 - - - - SE 22 32 12 17 1011.7 1011.7 -
25/07:00am 25.7 - - - - ESE 20 30 11 16 1011.2 1011.2 -
25/06:30am 25.6 - - - - ESE 22 28 12 15 1011.0 1011.0 -
25/06:00am 25.6 - - - - ESE 26 32 14 17 1010.8 1010.8 -
25/05:30am 25.5 - - - - ESE 22 30 12 16 1010.5 1010.5 -
25/05:00am 25.4 - - - - ESE 17 20 9 11 1010.2 1010.2 -
25/04:30am 25.6 - - - - ESE 22 30 12 16 1010.0 1010.0 -
25/04:00am 25.5 - - - - ESE 20 26 11 14 1009.8 1009.8 -
25/03:30am 25.4 - - - - ESE 17 24 9 13 1009.7 1009.7 -
25/03:00am 25.4 - - - - ESE 20 26 11 14 1009.7 1009.7 -
25/02:30am 25.4 - - - - ESE 19 24 10 13 1010.0 1010.0 -
25/02:00am 25.4 - - - - ESE 22 28 12 15 1010.3 1010.3 -
25/01:30am 25.6 - - - - ESE 24 32 13 17 1010.5 1010.5 -
25/01:00am 25.8 - - - - SE 24 32 13 17 1010.8 1010.8 -
25/12:30am 25.8 - - - - SE 22 32 12 17 1010.9 1010.9 -
25/12:00am 26.0 - - - - SE 20 28 11 15 1011.2 1011.2 -
 
Date/Time
EST
Temp
°C
App
Temp
°C
Dew
Point
°C
Rel
Hum
%
Delta-T
°C
Wind Press
QNH
hPa
Press
MSL
hPa
Rain since
9am
mm
Dir  Spd
km/h
Gust
km/h
Spd
kts
Gust
kts
24/11:30pm 25.9 - - - - SE 20 30 11 16 1011.4 1011.4 -
24/11:00pm 25.9 - - - - SE 20 28 11 15 1011.5 1011.5 -
24/10:30pm 25.9 - - - - SE 24 32 13 17 1011.3 1011.3 -
24/10:00pm 26.1 - - - - ESE 22 35 12 19 1011.2 1011.2 -
24/09:30pm 26.0 - - - - SE 20 28 11 15 1011.1 1011.1 -
24/09:00pm 26.0 - - - - ESE 22 30 12 16 1011.0 1011.0 -
24/08:30pm 26.1 - - - - SE 22 30 12 16 1010.6 1010.6 -
24/08:00pm 26.2 - - - - ESE 22 32 12 17 1010.2 1010.2 -
24/07:30pm 26.1 - - - - ESE 24 32 13 17 1009.9 1009.9 -
24/07:00pm 26.2 - - - - ESE 26 35 14 19 1009.6 1009.6 -
24/06:30pm 26.4 - - - - SE 24 30 13 16 1009.3 1009.3 -
24/06:00pm 26.7 - - - - ESE 28 37 15 20 1009.0 1009.0 -
24/05:30pm 26.8 - - - - SE 26 35 14 19 1008.8 1008.8 -
24/05:00pm 26.9 - - - - ESE 33 43 18 23 1008.8 1008.8 -
24/04:30pm 26.9 - - - - ESE 32 37 17 20 1008.8 1008.8 -
24/04:00pm 27.0 - - - - ESE 32 44 17 24 1008.7 1008.7 -
24/03:30pm 27.3 - - - - ESE 33 43 18 23 1008.9 1008.9 -
24/03:00pm 27.6 - - - - ESE 30 39 16 21 1009.0 1009.0 -
24/02:30pm 27.6 - - - - ESE 30 39 16 21 1009.3 1009.3 -
24/02:00pm 27.7 - - - - ESE 28 37 15 20 1009.8 1009.8 -
24/01:30pm 27.7 - - - - ESE 30 39 16 21 1010.3 1010.3 -
24/01:00pm 27.4 - - - - ESE 32 41 17 22 1010.7 1010.7 -
24/12:30pm 27.5 - - - - ESE 32 44 17 24 1011.3 1011.3 -
24/12:00pm 27.3 - - - - ESE 32 43 17 23 1011.7 1011.7 -
24/11:30am 27.1 - - - - ESE 32 41 17 22 1012.0 1012.0 -
24/11:00am 27.2 - - - - SE 28 37 15 20 1012.3 1012.3 -
24/10:30am 26.8 - - - - ESE 32 44 17 24 1012.5 1012.5 -
24/10:00am 26.8 - - - - SE 30 39 16 21 1012.7 1012.7 -
24/09:30am 26.6 - - - - ESE 26 33 14 18 1012.8 1012.8 -
24/09:00am 26.0 - - - - SE 26 32 14 17 1012.9 1012.9 -
24/08:30am 25.8 - - - - SE 22 30 12 16 1012.7 1012.7 -
24/08:00am 25.7 - - - - SE 20 28 11 15 1012.5 1012.5 -
24/07:30am 25.6 - - - - SE 20 26 11 14 1012.1 1012.1 -
24/07:00am 25.7 - - - - SE 20 26 11 14 1011.6 1011.6 -
24/06:30am 25.6 - - - - SE 19 24 10 13 1011.4 1011.4 -
24/06:00am 25.6 - - - - SE 19 28 10 15 1011.0 1011.0 -
24/05:30am 25.5 - - - - SE 20 30 11 16 1010.7 1010.7 -
24/05:00am 25.6 - - - - SE 20 28 11 15 1010.4 1010.4 -
24/04:30am 25.6 - - - - SE 17 22 9 12 1010.5 1010.5 -
24/04:00am 25.7 - - - - SE 19 24 10 13 1010.4 1010.4 -
24/03:30am 25.6 - - - - SE 20 26 11 14 1010.2 1010.2 -
24/03:00am 25.5 - - - - SE 22 30 12 16 1010.1 1010.1 -
24/02:30am 25.6 - - - - SE 22 28 12 15 1010.4 1010.4 -
24/02:00am 25.7 - - - - ESE 24 32 13 17 1010.6 1010.6 -
24/01:30am 25.7 - - - - ESE 22 30 12 16 1010.9 1010.9 -
24/01:00am 25.9 - - - - ESE 26 32 14 17 1011.3 1011.3 -
24/12:30am 25.9 - - - - ESE 24 32 13 17 1011.6 1011.6 -
24/12:00am 25.8 - - - - ESE 22 32 12 17 1011.9 1011.9 -
 
Date/Time
EST
Temp
°C
App
Temp
°C
Dew
Point
°C
Rel
Hum
%
Delta-T
°C
Wind Press
QNH
hPa
Press
MSL
hPa
Rain since
9am
mm
Dir  Spd
km/h
Gust
km/h
Spd
kts
Gust
kts
23/11:30pm 25.8 - - - - SE 22 28 12 15 1012.1 1012.1 -
23/11:00pm 25.9 - - - - SE 24 32 13 17 1012.1 1012.1 -
23/10:30pm 26.0 - - - - SE 24 30 13 16 1012.1 1012.1 -
23/10:00pm 26.0 - - - - SE 26 35 14 19 1012.0 1012.0 -
23/09:30pm 25.9 - - - - SE 26 33 14 18 1011.8 1011.8 -
23/09:00pm 26.0 - - - - SE 26 35 14 19 1011.5 1011.5 -
23/08:30pm 26.1 - - - - SE 24 30 13 16 1011.0 1011.0 -
23/08:00pm 26.0 - - - - SE 26 32 14 17 1010.7 1010.7 -
23/07:30pm 26.2 - - - - SE 20 30 11 16 1010.6 1010.6 -
23/07:00pm 26.3 - - - - SE 24 32 13 17 1010.4 1010.4 -
23/06:30pm 26.4 - - - - ESE 26 33 14 18 1010.2 1010.2 -
23/06:00pm 26.4 - - - - ESE 26 37 14 20 1010.0 1010.0 -
23/05:30pm 26.6 - - - - ESE 32 39 17 21 1010.1 1010.1 -
23/05:00pm 26.8 - - - - ESE 32 43 17 23 1009.8 1009.8 -
23/04:30pm 26.6 - - - - ESE 32 39 17 21 1009.8 1009.8 -
23/04:00pm 26.9 - - - - SE 41 50 22 27 1009.9 1009.9 -
23/03:30pm 26.8 - - - - ESE 35 46 19 25 1009.9 1009.9 -
23/03:00pm 27.1 - - - - ESE 35 46 19 25 1009.9 1009.9 -
23/02:30pm 27.2 - - - - ESE 37 46 20 25 1010.2 1010.2 -
23/02:00pm 27.2 - - - - ESE 37 46 20 25 1010.3 1010.3 -
23/01:30pm 27.4 - - - - ESE 37 52 20 28 1010.6 1010.6 -
23/01:00pm 27.3 - - - - ESE 37 48 20 26 1011.1 1011.1 -
23/12:30pm 27.2 - - - - ESE 35 48 19 26 1011.5 1011.5 -
23/12:00pm 27.1 - - - - ESE 35 46 19 25 1012.1 1012.1 -
23/11:30am 27.1 - - - - ESE 35 44 19 24 1012.4 1012.4 -
23/11:00am 27.0 - - - - ESE 33 44 18 24 1012.8 1012.8 -
23/10:30am 26.7 - - - - ESE 33 46 18 25 1013.1 1013.1 -
23/10:00am 26.7 - - - - ESE 33 44 18 24 1013.5 1013.5 -
23/09:30am 26.4 - - - - ESE 32 41 17 22 1013.5 1013.5 -
23/09:00am 26.1 - - - - ESE 28 41 15 22 1013.3 1013.3 -
23/08:30am 26.0 - - - - ESE 24 32 13 17 1013.0 1013.0 -
23/08:00am 25.9 - - - - ESE 20 26 11 14 1012.7 1012.7 -
23/07:30am 25.8 - - - - ESE 22 32 12 17 1012.5 1012.5 -
23/07:00am 25.6 - - - - ESE 17 20 9 11 1012.2 1012.2 -
23/06:30am 25.6 - - - - SE 19 24 10 13 1011.7 1011.7 -
23/06:00am 25.6 - - - - SE 19 24 10 13 1011.4 1011.4 -
23/05:30am 25.7 - - - - SE 19 26 10 14 1011.1 1011.1 -
23/05:00am 25.8 - - - - ESE 22 28 12 15 1010.8 1010.8 -
23/04:30am 25.8 - - - - SE 20 28 11 15 1010.6 1010.6 -
23/04:00am 25.7 - - - - SE 24 32 13 17 1010.6 1010.6 -
23/03:30am 25.6 - - - - ESE 22 32 12 17 1010.7 1010.7 -
23/03:00am 25.4 - - - - SE 22 26 12 14 1010.9 1010.9 -
23/02:30am 25.8 - - - - ESE 22 32 12 17 1011.0 1011.0 -
23/02:00am 25.7 - - - - ESE 22 30 12 16 1011.5 1011.5 -
23/01:30am 25.6 - - - - ESE 22 30 12 16 1011.9 1011.9 -
23/01:00am 25.7 - - - - ESE 20 28 11 15 1011.9 1011.9 -
23/12:30am 25.8 - - - - ESE 22 30 12 16 1012.0 1012.0 -
23/12:00am 25.9 - - - - SE 24 32 13 17 1012.3 1012.3 -
 
Date/Time
EST
Temp
°C
App
Temp
°C
Dew
Point
°C
Rel
Hum
%
Delta-T
°C
Wind Press
QNH
hPa
Press
MSL
hPa
Rain since
9am
mm
Dir  Spd
km/h
Gust
km/h
Spd
kts
Gust
kts
22/11:30pm 26.1 - - - - SE 26 35 14 19 1012.5 1012.5 -
22/11:00pm 26.0 - - - - SE 30 39 16 21 1012.6 1012.6 -
22/10:30pm 25.9 - - - - SE 28 39 15 21 1012.6 1012.6 -
22/10:00pm 25.9 - - - - SE 24 33 13 18 1012.7 1012.7 -
22/09:30pm 25.8 - - - - SE 26 32 14 17 1012.4 1012.4 -
22/09:00pm 25.9 - - - - SE 26 35 14 19 1012.3 1012.3 -
22/08:30pm 25.8 - - - - SE 28 35 15 19 1012.1 1012.1 -
22/08:00pm 25.9 - - - - SE 26 33 14 18 1012.0 1012.0 -
22/07:30pm 25.9 - - - - SE 24 32 13 17 1011.8 1011.8 -
22/07:00pm 26.1 - - - - ESE 28 37 15 20 1011.5 1011.5 -
22/06:30pm 26.3 - - - - ESE 26 30 14 16 1011.4 1011.4 -

Other Formats:

Comma delimited format used in spreadsheet applications
http://www.bom.gov.au/fwo/IDQ60801/IDQ60801.94181.axf

JavaScript Object Notation format (JSON) in row-major order
http://www.bom.gov.au/fwo/IDQ60801/IDQ60801.94181.json